createdAt,value
2018-04-07T00:01:07.837Z,0
2018-04-07T00:02:16.991Z,0
2018-04-07T00:03:25.641Z,0
2018-04-07T00:04:34.567Z,0
2018-04-07T00:05:43.987Z,0
2018-04-07T00:06:53.403Z,0
2018-04-07T00:08:02.534Z,0
2018-04-07T00:09:11.696Z,0
2018-04-07T00:10:20.600Z,0
2018-04-07T00:11:29.258Z,0
2018-04-07T00:12:38.404Z,0
2018-04-07T00:13:47.310Z,0
2018-04-07T00:14:55.939Z,0
2018-04-07T00:16:05.083Z,0
2018-04-07T00:17:13.976Z,0
2018-04-07T00:18:23.381Z,0
2018-04-07T00:19:32.279Z,0
2018-04-07T00:20:41.179Z,0
2018-04-07T00:21:50.087Z,0
2018-04-07T00:22:59.490Z,0
2018-04-07T00:24:08.136Z,0
2018-04-07T00:25:16.767Z,0
2018-04-07T00:26:25.913Z,0
2018-04-07T00:27:35.077Z,0
2018-04-07T00:28:44.235Z,0
2018-04-07T00:29:54.170Z,0
2018-04-07T00:31:03.070Z,0
2018-04-07T00:32:12.012Z,0
2018-04-07T00:33:20.903Z,0
2018-04-07T00:34:29.803Z,0
2018-04-07T00:35:38.710Z,0
2018-04-07T00:36:48.137Z,0
2018-04-07T00:37:57.276Z,0
2018-04-07T00:39:06.214Z,0
2018-04-07T00:40:15.618Z,0
2018-04-07T00:41:25.029Z,0
2018-04-07T00:42:34.187Z,0
2018-04-07T00:43:43.081Z,0
2018-04-07T00:44:51.968Z,0
2018-04-07T00:46:00.616Z,0
2018-04-07T00:47:09.514Z,0
2018-04-07T00:48:18.418Z,0
2018-04-07T00:49:27.578Z,0
2018-04-07T00:50:36.480Z,0
2018-04-07T00:51:45.121Z,0
2018-04-07T00:52:54.540Z,0
2018-04-07T00:54:03.721Z,0
2018-04-07T00:55:13.144Z,0
2018-04-07T00:56:22.066Z,0
2018-04-07T00:57:30.954Z,0
2018-04-07T00:58:40.361Z,0
2018-04-07T00:59:49.523Z,0
2018-04-07T01:00:58.936Z,0
2018-04-07T01:02:08.352Z,0
2018-04-07T01:03:17.282Z,0
2018-04-07T01:04:26.433Z,0
2018-04-07T01:05:35.318Z,0
2018-04-07T01:06:44.213Z,0
2018-04-07T01:07:53.370Z,0
2018-04-07T01:09:02.525Z,0
2018-04-07T01:10:11.955Z,0
2018-04-07T01:11:21.387Z,0
2018-04-07T01:12:30.818Z,0
2018-04-07T01:13:39.979Z,0
2018-04-07T01:14:49.156Z,0
2018-04-07T01:15:58.562Z,0
2018-04-07T01:17:07.441Z,0
2018-04-07T01:18:16.322Z,0
2018-04-07T01:19:25.233Z,0
2018-04-07T01:20:34.393Z,0
2018-04-07T01:21:43.533Z,0
2018-04-07T01:22:52.935Z,0
2018-04-07T01:24:01.832Z,0
2018-04-07T01:25:10.998Z,0
2018-04-07T01:26:19.644Z,0
2018-04-07T01:27:29.052Z,0
2018-04-07T01:28:38.190Z,0
2018-04-07T01:29:47.348Z,0
2018-04-07T01:30:56.540Z,0
2018-04-07T01:32:05.676Z,0
2018-04-07T01:33:15.078Z,0
2018-04-07T01:34:23.977Z,0
2018-04-07T01:35:32.890Z,0
2018-04-07T01:36:41.778Z,0
2018-04-07T01:37:50.688Z,0
2018-04-07T01:39:00.104Z,0
2018-04-07T01:40:09.275Z,0
2018-04-07T01:41:18.174Z,0
2018-04-07T01:42:27.067Z,0
2018-04-07T01:43:36.482Z,0
2018-04-07T01:44:45.891Z,0
2018-04-07T01:45:55.093Z,0
2018-04-07T01:47:04.030Z,0
2018-04-07T01:48:12.934Z,0
2018-04-07T01:49:22.331Z,0
2018-04-07T01:50:31.226Z,0
2018-04-07T01:51:40.112Z,0
2018-04-07T01:52:49.012Z,0
2018-04-07T01:53:58.170Z,0
2018-04-07T01:55:06.843Z,0
2018-04-07T01:56:15.992Z,0
2018-04-07T01:57:25.149Z,0
2018-04-07T01:58:33.778Z,0
2018-04-07T01:59:42.674Z,0
2018-04-07T02:00:52.070Z,0
2018-04-07T02:02:01.224Z,0
2018-04-07T02:03:10.131Z,0
2018-04-07T02:04:19.029Z,0
2018-04-07T02:05:28.174Z,0
2018-04-07T02:06:37.075Z,0
2018-04-07T02:07:46.477Z,0
2018-04-07T02:08:55.126Z,0
2018-04-07T02:10:04.024Z,0
2018-04-07T02:11:12.913Z,0
2018-04-07T02:12:21.550Z,0
2018-04-07T02:13:30.464Z,0
2018-04-07T02:14:39.108Z,0
2018-04-07T02:15:48.264Z,0
2018-04-07T02:16:57.163Z,0
2018-04-07T02:18:05.795Z,0
2018-04-07T02:19:14.938Z,0
2018-04-07T02:20:23.580Z,0
2018-04-07T02:21:32.747Z,0
2018-04-07T02:22:41.661Z,0
2018-04-07T02:23:51.327Z,0
2018-04-07T02:25:00.470Z,0
2018-04-07T02:26:09.373Z,0
2018-04-07T02:27:18.791Z,0
2018-04-07T02:28:27.943Z,0
2018-04-07T02:29:36.822Z,0
2018-04-07T02:30:46.010Z,0
2018-04-07T02:31:54.866Z,0
2018-04-07T02:33:04.084Z,0
2018-04-07T02:34:12.982Z,0
2018-04-07T02:35:21.877Z,0
2018-04-07T02:36:31.035Z,0
2018-04-07T02:37:40.209Z,0
2018-04-07T02:38:49.130Z,0
2018-04-07T02:39:58.533Z,0
2018-04-07T02:41:07.162Z,0
2018-04-07T02:42:15.793Z,0
2018-04-07T02:43:25.248Z,0
2018-04-07T02:44:34.406Z,0
2018-04-07T02:45:43.571Z,0
2018-04-07T02:46:52.723Z,0
2018-04-07T02:48:01.640Z,0
2018-04-07T02:49:11.010Z,0
2018-04-07T02:50:20.072Z,0
2018-04-07T02:51:29.272Z,0
2018-04-07T02:52:38.703Z,0
2018-04-07T02:53:47.907Z,0
2018-04-07T02:54:57.589Z,0
2018-04-07T02:56:06.548Z,0
2018-04-07T02:57:16.018Z,0
2018-04-07T02:58:25.438Z,0
2018-04-07T02:59:34.601Z,0
2018-04-07T03:00:44.049Z,0
2018-04-07T03:01:53.477Z,0
2018-04-07T03:03:02.382Z,0
2018-04-07T03:04:11.791Z,0
2018-04-07T03:05:21.199Z,0
2018-04-07T03:06:30.353Z,0
2018-04-07T03:07:39.270Z,0
2018-04-07T03:08:48.436Z,0
2018-04-07T03:09:57.330Z,0
2018-04-07T03:11:05.957Z,0
2018-04-07T03:12:14.857Z,0
2018-04-07T03:13:24.012Z,0
2018-04-07T03:14:33.170Z,0
2018-04-07T03:15:42.072Z,0
2018-04-07T03:16:51.215Z,0
2018-04-07T03:17:59.838Z,0
2018-04-07T03:19:09.023Z,0
2018-04-07T03:20:18.177Z,0
2018-04-07T03:21:26.882Z,0
2018-04-07T03:22:36.043Z,0
2018-04-07T03:23:45.462Z,0
2018-04-07T03:24:54.384Z,0
2018-04-07T03:26:03.296Z,0
2018-04-07T03:27:12.188Z,0
2018-04-07T03:28:21.348Z,0
2018-04-07T03:29:30.252Z,0
2018-04-07T03:30:39.401Z,0
2018-04-07T03:31:48.290Z,0
2018-04-07T03:32:58.153Z,0
2018-04-07T03:34:06.778Z,0
2018-04-07T03:35:15.939Z,0
2018-04-07T03:36:25.087Z,0
2018-04-07T03:37:33.972Z,0
2018-04-07T03:38:43.119Z,0
2018-04-07T03:39:52.005Z,0
2018-04-07T03:41:01.146Z,0
2018-04-07T03:42:10.317Z,0
2018-04-07T03:43:19.009Z,0
2018-04-07T03:44:27.643Z,0
2018-04-07T03:45:36.782Z,0
2018-04-07T03:46:45.931Z,0
2018-04-07T03:47:55.073Z,0
2018-04-07T03:49:04.220Z,0
2018-04-07T03:50:13.373Z,0
2018-04-07T03:51:22.259Z,0
2018-04-07T03:52:31.666Z,0
2018-04-07T03:53:40.630Z,0
2018-04-07T03:54:49.519Z,0
2018-04-07T03:55:58.928Z,0
2018-04-07T03:57:07.562Z,0
2018-04-07T03:58:16.712Z,0
2018-04-07T03:59:25.647Z,0
2018-04-07T04:00:34.750Z,0
2018-04-07T04:01:43.707Z,0
2018-04-07T04:02:53.112Z,0
2018-04-07T04:04:02.771Z,0
2018-04-07T04:05:11.930Z,0
2018-04-07T04:06:21.076Z,0
2018-04-07T04:07:30.223Z,0
2018-04-07T04:08:39.115Z,0
2018-04-07T04:09:48.008Z,0
2018-04-07T04:10:57.162Z,0
2018-04-07T04:12:06.304Z,0
2018-04-07T04:13:15.246Z,0
2018-04-07T04:14:23.876Z,0
2018-04-07T04:15:32.771Z,0
2018-04-07T04:16:41.696Z,0
2018-04-07T04:17:50.928Z,0
2018-04-07T04:18:59.816Z,0
2018-04-07T04:20:09.492Z,0
2018-04-07T04:21:18.182Z,0
2018-04-07T04:22:27.350Z,0
2018-04-07T04:23:36.788Z,0
2018-04-07T04:24:46.196Z,0
2018-04-07T04:25:55.605Z,0
2018-04-07T04:27:04.548Z,0
2018-04-07T04:28:13.713Z,0
2018-04-07T04:29:22.886Z,0
2018-04-07T04:30:32.294Z,0
2018-04-07T04:31:41.986Z,0
2018-04-07T04:32:51.399Z,0
2018-04-07T04:34:00.553Z,0
2018-04-07T04:35:09.985Z,0
2018-04-07T04:36:19.148Z,0
2018-04-07T04:37:28.300Z,0
2018-04-07T04:38:37.251Z,0
2018-04-07T04:39:46.142Z,0
2018-04-07T04:40:54.795Z,0
2018-04-07T04:42:03.698Z,0
2018-04-07T04:43:12.885Z,0
2018-04-07T04:44:22.289Z,0
2018-04-07T04:45:31.228Z,0
2018-04-07T04:46:40.386Z,0
2018-04-07T04:47:49.033Z,0
2018-04-07T04:48:57.719Z,0
2018-04-07T04:50:06.617Z,0
2018-04-07T04:51:15.784Z,0
2018-04-07T04:52:24.955Z,0
2018-04-07T04:53:33.992Z,0
2018-04-07T04:54:42.887Z,0
2018-04-07T04:55:51.609Z,0
2018-04-07T04:57:00.260Z,0
2018-04-07T04:58:09.399Z,0
2018-04-07T04:59:18.550Z,0
2018-04-07T05:00:27.704Z,0
2018-04-07T05:01:36.598Z,0
2018-04-07T05:02:46.013Z,0
2018-04-07T05:03:54.713Z,0
2018-04-07T05:05:04.592Z,0
2018-04-07T05:06:13.232Z,0
2018-04-07T05:07:22.228Z,0
2018-04-07T05:08:31.685Z,0
2018-04-07T05:09:40.865Z,0
2018-04-07T05:10:49.778Z,4
2018-04-07T05:11:58.779Z,4
2018-04-07T05:13:07.676Z,4
2018-04-07T05:14:16.327Z,4
2018-04-07T05:15:24.955Z,4
2018-04-07T05:16:34.124Z,4
2018-04-07T05:17:43.019Z,0
2018-04-07T05:18:51.664Z,0
2018-04-07T05:20:00.568Z,0
2018-04-07T05:21:09.755Z,0
2018-04-07T05:22:18.991Z,0
2018-04-07T05:23:27.618Z,4
2018-04-07T05:24:37.027Z,4
2018-04-07T05:25:46.170Z,4
2018-04-07T05:26:55.604Z,4
2018-04-07T05:28:04.488Z,4
2018-04-07T05:29:13.906Z,4
2018-04-07T05:30:23.317Z,4
2018-04-07T05:31:32.517Z,4
2018-04-07T05:32:41.925Z,4
2018-04-07T05:33:50.832Z,4
2018-04-07T05:35:00.236Z,4
2018-04-07T05:36:09.387Z,4
2018-04-07T05:37:18.575Z,4
2018-04-07T05:38:28.007Z,4
2018-04-07T05:39:37.667Z,4
2018-04-07T05:40:47.075Z,4
2018-04-07T05:41:55.973Z,4
2018-04-07T05:43:04.608Z,4
2018-04-07T05:44:14.028Z,8
2018-04-07T05:45:23.180Z,8
2018-04-07T05:46:32.334Z,4
2018-04-07T05:47:41.500Z,4
2018-04-07T05:48:50.657Z,4
2018-04-07T05:50:00.082Z,4
2018-04-07T05:51:09.252Z,8
2018-04-07T05:52:18.148Z,8
2018-04-07T05:53:28.061Z,8
2018-04-07T05:54:37.473Z,8
2018-04-07T05:55:47.010Z,8
2018-04-07T05:56:56.412Z,8
2018-04-07T05:58:05.550Z,8
2018-04-07T05:59:14.723Z,8
2018-04-07T06:00:23.364Z,8
2018-04-07T06:01:32.512Z,8
2018-04-07T06:02:41.675Z,8
2018-04-07T06:03:50.587Z,8
2018-04-07T06:04:59.234Z,8
2018-04-07T06:06:08.903Z,8
2018-04-07T06:07:17.799Z,8
2018-04-07T06:08:26.950Z,8
2018-04-07T06:09:35.856Z,12
2018-04-07T06:10:44.808Z,12
2018-04-07T06:11:53.442Z,8
2018-04-07T06:13:02.333Z,8
2018-04-07T06:14:11.494Z,12
2018-04-07T06:15:20.640Z,12
2018-04-07T06:16:29.533Z,12
2018-04-07T06:17:39.216Z,12
2018-04-07T06:18:48.881Z,12
2018-04-07T06:19:58.021Z,12
2018-04-07T06:21:07.419Z,12
2018-04-07T06:22:16.059Z,12
2018-04-07T06:23:24.952Z,12
2018-04-07T06:24:33.831Z,12
2018-04-07T06:25:42.480Z,12
2018-04-07T06:26:51.641Z,12
2018-04-07T06:28:01.047Z,12
2018-04-07T06:29:09.931Z,16
2018-04-07T06:30:19.349Z,12
2018-04-07T06:31:28.235Z,12
2018-04-07T06:32:37.122Z,16
2018-04-07T06:33:45.752Z,12
2018-04-07T06:34:54.692Z,16
2018-04-07T06:36:03.900Z,16
2018-04-07T06:37:13.314Z,16
2018-04-07T06:38:22.720Z,16
2018-04-07T06:39:31.667Z,20
2018-04-07T06:40:40.837Z,16
2018-04-07T06:41:50.307Z,16
2018-04-07T06:42:59.204Z,20
2018-04-07T06:44:08.168Z,20
2018-04-07T06:45:17.097Z,20
2018-04-07T06:46:25.978Z,24
2018-04-07T06:47:34.879Z,24
2018-04-07T06:48:44.069Z,24
2018-04-07T06:49:53.060Z,28
2018-04-07T06:51:01.967Z,28
2018-04-07T06:52:11.130Z,28
2018-04-07T06:53:20.022Z,28
2018-04-07T06:54:29.185Z,28
2018-04-07T06:55:38.337Z,32
2018-04-07T06:56:46.964Z,28
2018-04-07T06:57:55.628Z,32
2018-04-07T06:59:04.807Z,32
2018-04-07T07:00:13.979Z,28
2018-04-07T07:01:23.131Z,32
2018-04-07T07:02:32.060Z,28
2018-04-07T07:03:40.697Z,32
2018-04-07T07:04:49.605Z,32
2018-04-07T07:05:58.758Z,32
2018-04-07T07:07:07.657Z,32
2018-04-07T07:08:17.323Z,32
2018-04-07T07:09:26.477Z,36
2018-04-07T07:10:35.634Z,36
2018-04-07T07:11:44.540Z,36
2018-04-07T07:12:53.432Z,40
2018-04-07T07:14:02.848Z,40
2018-04-07T07:15:11.467Z,44
2018-04-07T07:16:20.350Z,48
2018-04-07T07:17:29.248Z,44
2018-04-07T07:18:37.887Z,44
2018-04-07T07:19:47.547Z,48
2018-04-07T07:20:56.955Z,44
2018-04-07T07:22:05.590Z,52
2018-04-07T07:23:14.505Z,52
2018-04-07T07:24:23.728Z,52
2018-04-07T07:25:32.912Z,52
2018-04-07T07:26:41.865Z,56
2018-04-07T07:27:51.022Z,56
2018-04-07T07:29:00.017Z,60
2018-04-07T07:30:09.726Z,60
2018-04-07T07:31:18.634Z,64
2018-04-07T07:32:27.524Z,64
2018-04-07T07:33:36.442Z,68
2018-04-07T07:34:45.606Z,68
2018-04-07T07:35:54.804Z,72
2018-04-07T07:37:03.441Z,72
2018-04-07T07:38:12.398Z,72
2018-04-07T07:39:21.038Z,76
2018-04-07T07:40:29.917Z,72
2018-04-07T07:41:39.324Z,72
2018-04-07T07:42:47.953Z,72
2018-04-07T07:43:56.884Z,76
2018-04-07T07:45:06.028Z,80
2018-04-07T07:46:15.169Z,76
2018-04-07T07:47:24.235Z,80
2018-04-07T07:48:33.788Z,80
2018-04-07T07:49:42.998Z,84
2018-04-07T07:50:52.170Z,84
2018-04-07T07:52:01.636Z,84
2018-04-07T07:53:11.283Z,80
2018-04-07T07:54:19.910Z,84
2018-04-07T07:55:28.806Z,84
2018-04-07T07:56:37.435Z,80
2018-04-07T07:57:46.327Z,84
2018-04-07T07:58:54.960Z,76
2018-04-07T08:00:04.261Z,68
2018-04-07T08:01:12.893Z,76
2018-04-07T08:02:21.782Z,80
2018-04-07T08:03:30.927Z,76
2018-04-07T08:04:40.644Z,80
2018-04-07T08:05:49.557Z,80
2018-04-07T08:06:59.218Z,84
2018-04-07T08:08:08.367Z,84
2018-04-07T08:09:17.767Z,88
2018-04-07T08:10:26.403Z,88
2018-04-07T08:11:35.351Z,88
2018-04-07T08:12:44.517Z,84
2018-04-07T08:13:53.672Z,76
2018-04-07T08:15:02.816Z,80
2018-04-07T08:16:11.700Z,80
2018-04-07T08:17:20.352Z,80
2018-04-07T08:18:29.788Z,84
2018-04-07T08:19:39.966Z,84
2018-04-07T08:20:48.908Z,88
2018-04-07T08:21:57.854Z,88
2018-04-07T08:23:06.960Z,92
2018-04-07T08:24:16.126Z,92
2018-04-07T08:25:25.021Z,92
2018-04-07T08:26:33.640Z,92
2018-04-07T08:27:42.555Z,92
2018-04-07T08:28:51.713Z,92
2018-04-07T08:30:00.346Z,92
2018-04-07T08:31:09.811Z,92
2018-04-07T08:32:19.300Z,92
2018-04-07T08:33:28.433Z,92
2018-04-07T08:34:37.357Z,96
2018-04-07T08:35:46.755Z,96
2018-04-07T08:36:55.646Z,92
2018-04-07T08:38:04.543Z,92
2018-04-07T08:39:13.700Z,92
2018-04-07T08:40:22.630Z,92
2018-04-07T08:41:31.796Z,92
2018-04-07T08:42:40.934Z,88
2018-04-07T08:43:49.820Z,88
2018-04-07T08:44:58.978Z,92
2018-04-07T08:46:08.129Z,96
2018-04-07T08:47:17.282Z,96
2018-04-07T08:48:26.070Z,96
2018-04-07T08:49:35.474Z,96
2018-04-07T08:50:45.613Z,96
2018-04-07T08:51:55.204Z,96
2018-04-07T08:53:04.483Z,96
2018-04-07T08:54:13.666Z,96
2018-04-07T08:55:22.571Z,96
2018-04-07T08:56:32.183Z,100
2018-04-07T08:57:41.090Z,100
2018-04-07T08:58:50.010Z,96
2018-04-07T08:59:59.303Z,100
2018-04-07T09:01:08.274Z,96
2018-04-07T09:02:17.177Z,100
2018-04-07T09:03:26.318Z,100
2018-04-07T09:04:35.494Z,100
2018-04-07T09:05:44.694Z,96
2018-04-07T09:06:53.584Z,96
2018-04-07T09:08:03.088Z,96
2018-04-07T09:09:11.980Z,100
2018-04-07T09:10:22.163Z,100
2018-04-07T09:11:31.126Z,92
2018-04-07T09:12:40.283Z,104
2018-04-07T09:13:48.963Z,104
2018-04-07T09:14:58.113Z,108
2018-04-07T09:16:06.996Z,104
2018-04-07T09:17:16.661Z,104
2018-04-07T09:18:25.807Z,104
2018-04-07T09:19:34.684Z,104
2018-04-07T09:20:43.619Z,104
2018-04-07T09:21:53.019Z,108
2018-04-07T09:23:02.001Z,104
2018-04-07T09:24:11.931Z,104
2018-04-07T09:25:21.083Z,100
2018-04-07T09:26:30.011Z,100
2018-04-07T09:27:39.444Z,100
2018-04-07T09:28:48.094Z,100
2018-04-07T09:29:57.034Z,96
2018-04-07T09:31:05.923Z,96
2018-04-07T09:32:15.089Z,92
2018-04-07T09:33:24.763Z,96
2018-04-07T09:34:34.170Z,96
2018-04-07T09:35:43.072Z,100
2018-04-07T09:36:52.527Z,96
2018-04-07T09:38:01.946Z,96
2018-04-07T09:39:11.100Z,100
2018-04-07T09:40:20.245Z,100
2018-04-07T09:41:28.874Z,100
2018-04-07T09:42:38.039Z,100
2018-04-07T09:43:46.940Z,96
2018-04-07T09:44:55.570Z,96
2018-04-07T09:46:04.483Z,96
2018-04-07T09:47:13.382Z,92
2018-04-07T09:48:22.797Z,92
2018-04-07T09:49:31.746Z,88
2018-04-07T09:50:40.911Z,88
2018-04-07T09:51:50.345Z,84
2018-04-07T09:52:59.556Z,88
2018-04-07T09:54:08.447Z,84
2018-04-07T09:55:17.441Z,84
2018-04-07T09:56:26.335Z,84
2018-04-07T09:57:35.540Z,76
2018-04-07T09:58:44.469Z,80
2018-04-07T09:59:53.092Z,80
2018-04-07T10:01:02.500Z,80
2018-04-07T10:02:11.399Z,80
2018-04-07T10:03:20.569Z,76
2018-04-07T10:04:29.249Z,80
2018-04-07T10:05:38.412Z,76
2018-04-07T10:06:47.321Z,76
2018-04-07T10:07:56.484Z,76
2018-04-07T10:09:05.643Z,76
2018-04-07T10:10:15.052Z,76
2018-04-07T10:11:24.465Z,76
2018-04-07T10:12:33.895Z,72
2018-04-07T10:13:43.087Z,68
2018-04-07T10:14:52.040Z,68
2018-04-07T10:16:00.703Z,68
2018-04-07T10:17:09.350Z,68
2018-04-07T10:18:18.752Z,64
2018-04-07T10:19:27.905Z,68
2018-04-07T10:20:36.809Z,72
2018-04-07T10:21:45.720Z,68
2018-04-07T10:22:55.366Z,64
2018-04-07T10:24:04.837Z,68
2018-04-07T10:25:13.984Z,68
2018-04-07T10:26:23.133Z,68
2018-04-07T10:27:32.026Z,64
2018-04-07T10:28:40.934Z,68
2018-04-07T10:29:50.120Z,64
2018-04-07T10:30:59.020Z,60
2018-04-07T10:32:08.255Z,64
2018-04-07T10:33:17.249Z,64
2018-04-07T10:34:26.658Z,60
2018-04-07T10:35:35.550Z,60
2018-04-07T10:36:44.450Z,60
2018-04-07T10:37:53.086Z,60
2018-04-07T10:39:02.654Z,56
2018-04-07T10:40:11.821Z,60
2018-04-07T10:41:20.708Z,60
2018-04-07T10:42:30.145Z,60
2018-04-07T10:43:38.791Z,60
2018-04-07T10:44:47.934Z,56
2018-04-07T10:45:57.359Z,56
2018-04-07T10:47:06.702Z,56
2018-04-07T10:48:15.615Z,52
2018-04-07T10:49:24.842Z,56
2018-04-07T10:50:33.479Z,52
2018-04-07T10:51:42.416Z,52
2018-04-07T10:52:51.425Z,52
2018-04-07T10:54:00.590Z,52
2018-04-07T10:55:09.257Z,56
2018-04-07T10:56:18.159Z,52
2018-04-07T10:57:27.057Z,52
2018-04-07T10:58:35.694Z,52
2018-04-07T10:59:44.842Z,48
2018-04-07T11:00:53.469Z,44
2018-04-07T11:02:02.104Z,48
2018-04-07T11:03:11.518Z,44
2018-04-07T11:04:20.685Z,44
2018-04-07T11:05:29.845Z,44
2018-04-07T11:06:38.479Z,44
2018-04-07T11:07:47.668Z,44
2018-04-07T11:08:56.563Z,44
2018-04-07T11:10:05.965Z,44
2018-04-07T11:11:15.431Z,40
2018-04-07T11:12:24.860Z,40
2018-04-07T11:13:34.290Z,40
2018-04-07T11:14:43.700Z,40
2018-04-07T11:15:52.343Z,40
2018-04-07T11:17:01.773Z,40
2018-04-07T11:18:10.669Z,36
2018-04-07T11:19:19.894Z,36
2018-04-07T11:20:28.788Z,32
2018-04-07T11:21:37.932Z,36
2018-04-07T11:22:47.139Z,32
2018-04-07T11:23:56.040Z,32
2018-04-07T11:25:04.943Z,28
2018-04-07T11:26:14.100Z,28
2018-04-07T11:27:23.670Z,28
2018-04-07T11:28:32.567Z,28
2018-04-07T11:29:41.716Z,24
2018-04-07T11:30:50.863Z,28
2018-04-07T11:32:00.321Z,28
2018-04-07T11:33:09.739Z,28
2018-04-07T11:34:18.938Z,28
2018-04-07T11:35:28.164Z,28
2018-04-07T11:36:37.013Z,24
2018-04-07T11:37:46.160Z,24
2018-04-07T11:38:55.060Z,24
2018-04-07T11:40:03.698Z,24
2018-04-07T11:41:12.587Z,24
2018-04-07T11:42:21.476Z,24
2018-04-07T11:43:30.108Z,24
2018-04-07T11:44:39.518Z,28
2018-04-07T11:45:48.439Z,28
2018-04-07T11:46:57.335Z,28
2018-04-07T11:48:06.312Z,28
2018-04-07T11:49:16.253Z,24
2018-04-07T11:50:24.896Z,24
2018-04-07T11:51:33.799Z,32
2018-04-07T11:52:42.732Z,28
2018-04-07T11:53:51.627Z,28
2018-04-07T11:55:00.775Z,32
2018-04-07T11:56:10.446Z,28
2018-04-07T11:57:19.379Z,32
2018-04-07T11:58:28.292Z,32
2018-04-07T11:59:37.436Z,32
2018-04-07T12:00:46.441Z,32
2018-04-07T12:01:56.318Z,36
2018-04-07T12:03:05.226Z,36
2018-04-07T12:04:14.117Z,36
2018-04-07T12:05:23.052Z,32
2018-04-07T12:06:32.506Z,36
2018-04-07T12:07:41.946Z,32
2018-04-07T12:08:50.584Z,36
2018-04-07T12:09:59.505Z,36
2018-04-07T12:11:08.167Z,36
2018-04-07T12:12:17.334Z,36
2018-04-07T12:13:26.226Z,36
2018-04-07T12:14:35.142Z,36
2018-04-07T12:15:44.041Z,36
2018-04-07T12:16:52.926Z,36
2018-04-07T12:18:02.625Z,36
2018-04-07T12:19:11.510Z,36
2018-04-07T12:20:20.148Z,40
2018-04-07T12:21:29.064Z,40
2018-04-07T12:22:37.962Z,36
2018-04-07T12:23:46.897Z,36
2018-04-07T12:24:56.304Z,36
2018-04-07T12:26:05.199Z,32
2018-04-07T12:27:14.084Z,36
2018-04-07T12:28:23.255Z,40
2018-04-07T12:29:32.650Z,44
2018-04-07T12:30:41.837Z,44
2018-04-07T12:31:50.979Z,40
2018-04-07T12:32:59.621Z,44
2018-04-07T12:34:08.765Z,44
2018-04-07T12:35:17.912Z,44
2018-04-07T12:36:26.812Z,44
2018-04-07T12:37:35.988Z,48
2018-04-07T12:38:45.157Z,44
2018-04-07T12:39:54.854Z,48
2018-04-07T12:41:03.997Z,44
2018-04-07T12:42:13.179Z,44
2018-04-07T12:43:22.352Z,48
2018-04-07T12:44:31.509Z,52
2018-04-07T12:45:40.440Z,48
2018-04-07T12:46:49.600Z,52
2018-04-07T12:47:58.784Z,52
2018-04-07T12:49:07.685Z,48
2018-04-07T12:50:16.588Z,52
2018-04-07T12:51:25.746Z,52
2018-04-07T12:52:34.643Z,56
2018-04-07T12:53:43.292Z,56
2018-04-07T12:54:52.003Z,56
2018-04-07T12:56:01.156Z,56
2018-04-07T12:57:10.333Z,56
2018-04-07T12:58:18.978Z,56
2018-04-07T12:59:28.194Z,56
2018-04-07T13:00:37.268Z,56
2018-04-07T13:01:46.182Z,56
2018-04-07T13:02:55.357Z,60
2018-04-07T13:04:05.036Z,64
2018-04-07T13:05:13.938Z,60
2018-04-07T13:06:22.838Z,64
2018-04-07T13:07:31.991Z,64
2018-04-07T13:08:40.883Z,64
2018-04-07T13:09:50.073Z,64
2018-04-07T13:10:58.712Z,64
2018-04-07T13:12:07.627Z,68
2018-04-07T13:13:17.047Z,64
2018-04-07T13:14:26.277Z,68
2018-04-07T13:15:35.254Z,68
2018-04-07T13:16:44.654Z,68
2018-04-07T13:17:53.550Z,68
2018-04-07T13:19:02.512Z,68
2018-04-07T13:20:11.924Z,68
2018-04-07T13:21:21.387Z,64
2018-04-07T13:22:30.547Z,68
2018-04-07T13:23:40.467Z,68
2018-04-07T13:24:49.373Z,64
2018-04-07T13:25:58.280Z,72
2018-04-07T13:27:07.191Z,76
2018-04-07T13:28:16.359Z,72
2018-04-07T13:29:25.540Z,76
2018-04-07T13:30:34.440Z,76
2018-04-07T13:31:43.347Z,72
2018-04-07T13:32:52.270Z,76
2018-04-07T13:34:01.680Z,76
2018-04-07T13:35:10.859Z,76
2018-04-07T13:36:19.766Z,76
2018-04-07T13:37:28.908Z,80
2018-04-07T13:38:37.807Z,80
2018-04-07T13:39:46.453Z,80
2018-04-07T13:40:55.607Z,80
2018-04-07T13:42:04.810Z,80
2018-04-07T13:43:14.494Z,84
2018-04-07T13:44:24.422Z,80
2018-04-07T13:45:33.040Z,80
2018-04-07T13:46:42.187Z,76
2018-04-07T13:47:50.810Z,80
2018-04-07T13:48:59.704Z,80
2018-04-07T13:50:08.588Z,84
2018-04-07T13:51:17.485Z,88
2018-04-07T13:52:26.372Z,84
2018-04-07T13:53:35.278Z,80
2018-04-07T13:54:44.163Z,84
2018-04-07T13:55:53.323Z,88
2018-04-07T13:57:02.218Z,84
2018-04-07T13:58:10.848Z,84
2018-04-07T13:59:19.736Z,88
2018-04-07T14:00:29.182Z,84
2018-04-07T14:01:38.312Z,92
2018-04-07T14:02:47.710Z,76
2018-04-07T14:03:57.377Z,88
2018-04-07T14:05:06.523Z,88
2018-04-07T14:06:15.936Z,92
2018-04-07T14:07:25.082Z,92
2018-04-07T14:08:34.484Z,88
2018-04-07T14:09:43.874Z,88
2018-04-07T14:10:53.303Z,92
2018-04-07T14:12:02.210Z,92
2018-04-07T14:13:11.123Z,92
2018-04-07T14:14:20.289Z,88
2018-04-07T14:15:29.184Z,92
2018-04-07T14:16:37.818Z,92
2018-04-07T14:17:46.714Z,88
2018-04-07T14:18:55.867Z,92
2018-04-07T14:20:05.049Z,88
2018-04-07T14:21:13.943Z,96
2018-04-07T14:22:22.563Z,88
2018-04-07T14:23:31.459Z,88
2018-04-07T14:24:40.877Z,84
2018-04-07T14:25:50.283Z,80
2018-04-07T14:26:59.430Z,80
2018-04-07T14:28:08.328Z,88
2018-04-07T14:29:17.488Z,92
2018-04-07T14:30:26.650Z,88
2018-04-07T14:31:35.538Z,92
2018-04-07T14:32:44.186Z,88
2018-04-07T14:33:53.341Z,84
2018-04-07T14:35:02.499Z,72
2018-04-07T14:36:11.652Z,60
2018-04-07T14:37:20.831Z,56
2018-04-07T14:38:29.999Z,44
2018-04-07T14:39:38.893Z,36
2018-04-07T14:40:47.530Z,24
2018-04-07T14:41:56.672Z,20
2018-04-07T14:43:06.123Z,20
2018-04-07T14:44:15.048Z,20
2018-04-07T14:45:23.738Z,20
2018-04-07T14:46:32.943Z,20
2018-04-07T14:47:41.836Z,16
2018-04-07T14:48:51.006Z,16
2018-04-07T14:49:59.898Z,16
2018-04-07T14:51:08.799Z,20
2018-04-07T14:52:17.684Z,16
2018-04-07T14:53:27.106Z,16
2018-04-07T14:54:35.749Z,16
2018-04-07T14:55:44.679Z,16
2018-04-07T14:56:53.883Z,20
2018-04-07T14:58:02.514Z,20
2018-04-07T14:59:11.402Z,16
2018-04-07T15:00:20.299Z,16
2018-04-07T15:01:29.459Z,16
2018-04-07T15:02:38.612Z,16
2018-04-07T15:03:47.499Z,16
2018-04-07T15:04:56.136Z,16
2018-04-07T15:06:05.279Z,16
2018-04-07T15:07:14.695Z,16
2018-04-07T15:08:23.842Z,16
2018-04-07T15:09:33.027Z,16
2018-04-07T15:10:42.439Z,16
2018-04-07T15:11:51.343Z,16
2018-04-07T15:13:00.771Z,12
2018-04-07T15:14:09.928Z,16
2018-04-07T15:15:19.592Z,12
2018-04-07T15:16:28.509Z,12
2018-04-07T15:17:37.419Z,12
2018-04-07T15:18:46.331Z,16
2018-04-07T15:19:55.303Z,16
2018-04-07T15:21:04.218Z,16
2018-04-07T15:22:13.630Z,16
2018-04-07T15:23:23.315Z,16
2018-04-07T15:24:32.239Z,16
2018-04-07T15:25:41.391Z,12
2018-04-07T15:26:50.307Z,12
2018-04-07T15:27:59.472Z,12
2018-04-07T15:29:08.644Z,12
2018-04-07T15:30:18.043Z,12
2018-04-07T15:31:26.939Z,12
2018-04-07T15:32:36.342Z,12
2018-04-07T15:33:45.499Z,12
2018-04-07T15:34:54.655Z,12
2018-04-07T15:36:03.811Z,16
2018-04-07T15:37:12.508Z,16
2018-04-07T15:38:21.958Z,12
2018-04-07T15:39:31.115Z,16
2018-04-07T15:40:40.617Z,16
2018-04-07T15:41:49.593Z,12
2018-04-07T15:42:58.471Z,12
2018-04-07T15:44:07.381Z,12
2018-04-07T15:45:16.278Z,12
2018-04-07T15:46:25.195Z,12
2018-04-07T15:47:34.075Z,12
2018-04-07T15:48:43.239Z,12
2018-04-07T15:49:52.410Z,8
2018-04-07T15:51:02.677Z,8
2018-04-07T15:52:11.556Z,8
2018-04-07T15:53:20.741Z,12
2018-04-07T15:54:29.713Z,12
2018-04-07T15:55:39.117Z,12
2018-04-07T15:56:48.644Z,12
2018-04-07T15:57:58.183Z,12
2018-04-07T15:59:07.333Z,12
2018-04-07T16:00:16.243Z,12
2018-04-07T16:01:25.929Z,8
2018-04-07T16:02:35.612Z,12
2018-04-07T16:03:45.079Z,8
2018-04-07T16:04:53.972Z,8
2018-04-07T16:06:03.367Z,8
2018-04-07T16:07:12.538Z,8
2018-04-07T16:08:21.988Z,8
2018-04-07T16:09:30.884Z,8
2018-04-07T16:10:40.288Z,8
2018-04-07T16:11:49.182Z,8
2018-04-07T16:12:58.334Z,8
2018-04-07T16:14:07.241Z,8
2018-04-07T16:15:16.166Z,8
2018-04-07T16:16:25.343Z,8
2018-04-07T16:17:34.498Z,8
2018-04-07T16:18:43.670Z,8
2018-04-07T16:19:52.840Z,8
2018-04-07T16:21:02.514Z,8
2018-04-07T16:22:11.947Z,8
2018-04-07T16:23:20.852Z,8
2018-04-07T16:24:30.361Z,8
2018-04-07T16:25:39.519Z,8
2018-04-07T16:26:48.418Z,8
2018-04-07T16:27:57.056Z,8
2018-04-07T16:29:06.225Z,8
2018-04-07T16:30:15.385Z,4
2018-04-07T16:31:24.789Z,4
2018-04-07T16:32:34.211Z,8
2018-04-07T16:33:43.880Z,8
2018-04-07T16:34:52.757Z,4
2018-04-07T16:36:01.637Z,8
2018-04-07T16:37:10.282Z,4
2018-04-07T16:38:18.920Z,8
2018-04-07T16:39:27.540Z,8